sensor_id;sensor_type;location;lat;lon;timestamp;temperature;humidity
5280;DHT22;2663;53.588;10.010;2022-11-21T00:00:46;2.60;99.90
5280;DHT22;2663;53.588;10.010;2022-11-21T00:03:13;2.50;99.90
5280;DHT22;2663;53.588;10.010;2022-11-21T00:05:46;2.50;99.90
5280;DHT22;2663;53.588;10.010;2022-11-21T00:08:18;3.30;99.90
5280;DHT22;2663;53.588;10.010;2022-11-21T00:10:46;2.40;99.90
5280;DHT22;2663;53.588;10.010;2022-11-21T00:13:15;2.40;99.90
5280;DHT22;2663;53.588;10.010;2022-11-21T00:15:42;2.40;99.90
5280;DHT22;2663;53.588;10.010;2022-11-21T00:18:09;2.40;99.90
5280;DHT22;2663;53.588;10.010;2022-11-21T00:20:40;2.50;99.90
5280;DHT22;2663;53.588;10.010;2022-11-21T00:23:07;2.50;99.90
5280;DHT22;2663;53.588;10.010;2022-11-21T00:25:35;2.50;99.90
5280;DHT22;2663;53.588;10.010;2022-11-21T00:28:02;2.50;99.90
5280;DHT22;2663;53.588;10.010;2022-11-21T00:30:29;2.40;99.90
5280;DHT22;2663;53.588;10.010;2022-11-21T00:32:57;2.40;99.90
5280;DHT22;2663;53.588;10.010;2022-11-21T00:35:24;2.50;99.90
5280;DHT22;2663;53.588;10.010;2022-11-21T00:37:51;2.40;99.90
5280;DHT22;2663;53.588;10.010;2022-11-21T00:40:18;2.50;99.90
5280;DHT22;2663;53.588;10.010;2022-11-21T00:42:45;2.90;99.90
5280;DHT22;2663;53.588;10.010;2022-11-21T00:45:11;2.40;99.90
5280;DHT22;2663;53.588;10.010;2022-11-21T00:47:38;2.30;99.90
5280;DHT22;2663;53.588;10.010;2022-11-21T00:50:05;2.40;99.90
5280;DHT22;2663;53.588;10.010;2022-11-21T00:52:32;2.40;99.90
5280;DHT22;2663;53.588;10.010;2022-11-21T00:54:58;2.40;99.90
5280;DHT22;2663;53.588;10.010;2022-11-21T00:57:25;2.40;99.90
5280;DHT22;2663;53.588;10.010;2022-11-21T00:59:51;2.40;99.90
5280;DHT22;2663;53.588;10.010;2022-11-21T01:02:18;2.40;99.90
5280;DHT22;2663;53.588;10.010;2022-11-21T01:04:45;2.40;99.90
5280;DHT22;2663;53.588;10.010;2022-11-21T01:07:13;2.40;99.90
5280;DHT22;2663;53.588;10.010;2022-11-21T01:09:40;2.40;99.90
5280;DHT22;2663;53.588;10.010;2022-11-21T01:12:07;2.40;99.90
5280;DHT22;2663;53.588;10.010;2022-11-21T01:14:33;2.40;99.90
5280;DHT22;2663;53.588;10.010;2022-11-21T01:17:00;2.40;99.90
5280;DHT22;2663;53.588;10.010;2022-11-21T01:19:27;2.40;99.90
5280;DHT22;2663;53.588;10.010;2022-11-21T01:21:53;2.30;99.90
5280;DHT22;2663;53.588;10.010;2022-11-21T01:24:20;2.30;99.90
5280;DHT22;2663;53.588;10.010;2022-11-21T01:26:46;2.40;99.90
5280;DHT22;2663;53.588;10.010;2022-11-21T01:29:16;2.30;99.90
5280;DHT22;2663;53.588;10.010;2022-11-21T01:31:43;2.30;99.90
5280;DHT22;2663;53.588;10.010;2022-11-21T01:34:09;2.30;99.90
5280;DHT22;2663;53.588;10.010;2022-11-21T01:36:36;2.30;99.90
5280;DHT22;2663;53.588;10.010;2022-11-21T01:39:04;2.20;99.90
5280;DHT22;2663;53.588;10.010;2022-11-21T01:41:37;2.20;99.90
5280;DHT22;2663;53.588;10.010;2022-11-21T01:44:22;2.20;99.90
5280;DHT22;2663;53.588;10.010;2022-11-21T01:46:50;2.10;99.90
5280;DHT22;2663;53.588;10.010;2022-11-21T01:49:24;2.10;99.90
5280;DHT22;2663;53.588;10.010;2022-11-21T01:51:57;2.00;99.90
5280;DHT22;2663;53.588;10.010;2022-11-21T01:54:26;1.90;99.90
5280;DHT22;2663;53.588;10.010;2022-11-21T01:57:08;1.80;99.90
5280;DHT22;2663;53.588;10.010;2022-11-21T01:59:45;1.70;99.90
5280;DHT22;2663;53.588;10.010;2022-11-21T02:02:15;1.60;99.90
5280;DHT22;2663;53.588;10.010;2022-11-21T02:04:43;1.70;99.90
5280;DHT22;2663;53.588;10.010;2022-11-21T02:07:12;1.70;99.90
5280;DHT22;2663;53.588;10.010;2022-11-21T02:09:42;1.60;99.90
5280;DHT22;2663;53.588;10.010;2022-11-21T02:12:31;1.50;99.90
5280;DHT22;2663;53.588;10.010;2022-11-21T02:14:59;1.50;99.90
5280;DHT22;2663;53.588;10.010;2022-11-21T02:17:29;1.50;99.90
5280;DHT22;2663;53.588;10.010;2022-11-21T02:20:02;1.40;99.90
5280;DHT22;2663;53.588;10.010;2022-11-21T02:22:35;1.30;99.90
5280;DHT22;2663;53.588;10.010;2022-11-21T02:25:07;1.40;99.90
5280;DHT22;2663;53.588;10.010;2022-11-21T02:27:35;1.50;99.90
5280;DHT22;2663;53.588;10.010;2022-11-21T02:30:03;1.60;99.90
5280;DHT22;2663;53.588;10.010;2022-11-21T02:32:36;1.50;99.90
5280;DHT22;2663;53.588;10.010;2022-11-21T02:35:04;1.80;99.90
5280;DHT22;2663;53.588;10.010;2022-11-21T02:37:32;2.50;99.90
5280;DHT22;2663;53.588;10.010;2022-11-21T02:40:05;1.90;99.90
5280;DHT22;2663;53.588;10.010;2022-11-21T02:45:40;1.90;99.90
5280;DHT22;2663;53.588;10.010;2022-11-21T02:48:08;1.80;99.90
5280;DHT22;2663;53.588;10.010;2022-11-21T02:50:36;1.90;99.90
5280;DHT22;2663;53.588;10.010;2022-11-21T02:53:05;1.80;99.90
5280;DHT22;2663;53.588;10.010;2022-11-21T02:55:32;1.80;99.90
5280;DHT22;2663;53.588;10.010;2022-11-21T02:57:59;1.90;99.90
5280;DHT22;2663;53.588;10.010;2022-11-21T03:00:31;1.80;99.90
5280;DHT22;2663;53.588;10.010;2022-11-21T03:02:58;1.80;99.90
5280;DHT22;2663;53.588;10.010;2022-11-21T03:05:25;1.80;99.90
5280;DHT22;2663;53.588;10.010;2022-11-21T03:07:52;1.80;99.90
5280;DHT22;2663;53.588;10.010;2022-11-21T03:10:18;1.90;99.90
5280;DHT22;2663;53.588;10.010;2022-11-21T03:12:46;2.00;99.90
5280;DHT22;2663;53.588;10.010;2022-11-21T03:15:13;2.10;99.90
5280;DHT22;2663;53.588;10.010;2022-11-21T03:17:41;2.00;99.90
5280;DHT22;2663;53.588;10.010;2022-11-21T03:20:08;2.00;99.90
5280;DHT22;2663;53.588;10.010;2022-11-21T03:22:36;2.00;99.90
5280;DHT22;2663;53.588;10.010;2022-11-21T03:25:03;2.00;99.90
5280;DHT22;2663;53.588;10.010;2022-11-21T03:27:29;2.00;99.90
5280;DHT22;2663;53.588;10.010;2022-11-21T03:29:56;1.90;99.90
5280;DHT22;2663;53.588;10.010;2022-11-21T03:32:23;2.00;99.90
5280;DHT22;2663;53.588;10.010;2022-11-21T03:34:49;1.80;99.90
5280;DHT22;2663;53.588;10.010;2022-11-21T03:37:16;2.00;99.90
5280;DHT22;2663;53.588;10.010;2022-11-21T03:39:43;1.90;99.90
5280;DHT22;2663;53.588;10.010;2022-11-21T03:42:09;2.00;99.90
5280;DHT22;2663;53.588;10.010;2022-11-21T03:44:36;2.00;99.90
5280;DHT22;2663;53.588;10.010;2022-11-21T03:47:03;2.00;99.90
5280;DHT22;2663;53.588;10.010;2022-11-21T03:49:30;2.60;99.90
5280;DHT22;2663;53.588;10.010;2022-11-21T03:51:56;1.90;99.90
5280;DHT22;2663;53.588;10.010;2022-11-21T03:54:23;1.90;99.90
5280;DHT22;2663;53.588;10.010;2022-11-21T03:56:50;1.90;99.90
5280;DHT22;2663;53.588;10.010;2022-11-21T03:59:16;1.90;99.90
5280;DHT22;2663;53.588;10.010;2022-11-21T04:01:43;1.80;99.90
5280;DHT22;2663;53.588;10.010;2022-11-21T04:04:10;1.80;99.90
5280;DHT22;2663;53.588;10.010;2022-11-21T04:06:36;1.80;99.90
5280;DHT22;2663;53.588;10.010;2022-11-21T04:09:03;1.90;99.90
5280;DHT22;2663;53.588;10.010;2022-11-21T04:11:30;1.90;99.90
5280;DHT22;2663;53.588;10.010;2022-11-21T04:13:56;1.90;99.90
5280;DHT22;2663;53.588;10.010;2022-11-21T04:16:23;1.90;99.90
5280;DHT22;2663;53.588;10.010;2022-11-21T04:18:50;1.90;99.90
5280;DHT22;2663;53.588;10.010;2022-11-21T04:21:16;1.90;99.90
5280;DHT22;2663;53.588;10.010;2022-11-21T04:23:43;1.80;99.90
5280;DHT22;2663;53.588;10.010;2022-11-21T04:26:10;1.70;99.90
5280;DHT22;2663;53.588;10.010;2022-11-21T04:28:37;1.70;99.90
5280;DHT22;2663;53.588;10.010;2022-11-21T04:31:05;1.50;99.90
5280;DHT22;2663;53.588;10.010;2022-11-21T04:33:37;1.60;99.90
5280;DHT22;2663;53.588;10.010;2022-11-21T04:36:05;1.60;99.90
5280;DHT22;2663;53.588;10.010;2022-11-21T04:38:32;1.50;99.90
5280;DHT22;2663;53.588;10.010;2022-11-21T04:40:59;1.40;99.90
5280;DHT22;2663;53.588;10.010;2022-11-21T04:43:26;1.40;99.90
5280;DHT22;2663;53.588;10.010;2022-11-21T04:45:52;1.40;99.90
5280;DHT22;2663;53.588;10.010;2022-11-21T04:48:19;1.40;99.90
5280;DHT22;2663;53.588;10.010;2022-11-21T04:50:46;1.50;99.90
5280;DHT22;2663;53.588;10.010;2022-11-21T04:53:12;1.50;99.90
5280;DHT22;2663;53.588;10.010;2022-11-21T04:55:39;1.60;99.90
5280;DHT22;2663;53.588;10.010;2022-11-21T04:58:06;1.50;99.90
5280;DHT22;2663;53.588;10.010;2022-11-21T05:00:33;1.50;99.90
5280;DHT22;2663;53.588;10.010;2022-11-21T05:03:04;1.40;99.90
5280;DHT22;2663;53.588;10.010;2022-11-21T05:05:31;1.50;99.90
5280;DHT22;2663;53.588;10.010;2022-11-21T05:07:58;1.50;99.90
5280;DHT22;2663;53.588;10.010;2022-11-21T05:10:25;1.50;99.90
5280;DHT22;2663;53.588;10.010;2022-11-21T05:12:59;1.50;99.90
5280;DHT22;2663;53.588;10.010;2022-11-21T05:15:44;1.40;99.90
5280;DHT22;2663;53.588;10.010;2022-11-21T05:18:11;1.40;99.90
5280;DHT22;2663;53.588;10.010;2022-11-21T05:20:38;1.40;99.90
5280;DHT22;2663;53.588;10.010;2022-11-21T05:23:04;1.40;99.90
5280;DHT22;2663;53.588;10.010;2022-11-21T05:25:31;1.40;99.90
5280;DHT22;2663;53.588;10.010;2022-11-21T05:27:58;1.40;99.90
5280;DHT22;2663;53.588;10.010;2022-11-21T05:30:24;1.40;99.90
5280;DHT22;2663;53.588;10.010;2022-11-21T05:32:51;1.40;99.90
5280;DHT22;2663;53.588;10.010;2022-11-21T05:35:18;1.40;99.90
5280;DHT22;2663;53.588;10.010;2022-11-21T05:37:44;1.50;99.90
5280;DHT22;2663;53.588;10.010;2022-11-21T05:40:11;1.50;99.90
5280;DHT22;2663;53.588;10.010;2022-11-21T05:42:42;1.50;99.90
5280;DHT22;2663;53.588;10.010;2022-11-21T05:45:35;1.40;99.90
5280;DHT22;2663;53.588;10.010;2022-11-21T05:48:02;1.40;99.90
5280;DHT22;2663;53.588;10.010;2022-11-21T05:50:35;1.50;99.90
5280;DHT22;2663;53.588;10.010;2022-11-21T05:53:03;1.40;99.90
5280;DHT22;2663;53.588;10.010;2022-11-21T05:55:32;1.50;99.90
5280;DHT22;2663;53.588;10.010;2022-11-21T05:57:59;1.40;99.90
5280;DHT22;2663;53.588;10.010;2022-11-21T06:00:27;1.40;99.90
5280;DHT22;2663;53.588;10.010;2022-11-21T06:02:54;1.30;99.90
5280;DHT22;2663;53.588;10.010;2022-11-21T06:05:40;1.30;99.90
5280;DHT22;2663;53.588;10.010;2022-11-21T06:08:07;1.20;99.90
5280;DHT22;2663;53.588;10.010;2022-11-21T06:10:33;1.20;99.90
5280;DHT22;2663;53.588;10.010;2022-11-21T06:13:01;1.00;99.90
5280;DHT22;2663;53.588;10.010;2022-11-21T06:15:28;0.90;99.90
5280;DHT22;2663;53.588;10.010;2022-11-21T06:17:55;1.00;99.90
5280;DHT22;2663;53.588;10.010;2022-11-21T06:20:21;1.00;99.90
5280;DHT22;2663;53.588;10.010;2022-11-21T06:22:48;1.10;99.90
5280;DHT22;2663;53.588;10.010;2022-11-21T06:25:15;1.00;99.90
5280;DHT22;2663;53.588;10.010;2022-11-21T06:27:41;0.90;99.90
5280;DHT22;2663;53.588;10.010;2022-11-21T06:30:08;0.80;99.90
5280;DHT22;2663;53.588;10.010;2022-11-21T06:32:36;0.90;99.90
5280;DHT22;2663;53.588;10.010;2022-11-21T06:35:03;1.00;99.90
5280;DHT22;2663;53.588;10.010;2022-11-21T06:37:30;1.10;99.90
5280;DHT22;2663;53.588;10.010;2022-11-21T06:39:58;2.00;99.90
5280;DHT22;2663;53.588;10.010;2022-11-21T06:42:24;1.10;99.90
5280;DHT22;2663;53.588;10.010;2022-11-21T06:44:51;1.90;99.90
5280;DHT22;2663;53.588;10.010;2022-11-21T06:47:18;1.10;99.90
5280;DHT22;2663;53.588;10.010;2022-11-21T06:49:46;1.20;99.90
5280;DHT22;2663;53.588;10.010;2022-11-21T06:52:12;1.20;99.90
5280;DHT22;2663;53.588;10.010;2022-11-21T06:54:39;1.10;99.90
5280;DHT22;2663;53.588;10.010;2022-11-21T06:57:06;1.10;99.90
5280;DHT22;2663;53.588;10.010;2022-11-21T06:59:33;1.90;99.90
5280;DHT22;2663;53.588;10.010;2022-11-21T07:02:00;2.00;99.90
5280;DHT22;2663;53.588;10.010;2022-11-21T07:04:26;2.60;99.90
5280;DHT22;2663;53.588;10.010;2022-11-21T07:06:53;2.70;99.90
5280;DHT22;2663;53.588;10.010;2022-11-21T07:09:20;3.30;99.90
5280;DHT22;2663;53.588;10.010;2022-11-21T07:12:03;2.90;99.90
5280;DHT22;2663;53.588;10.010;2022-11-21T07:14:49;2.30;99.90
5280;DHT22;2663;53.588;10.010;2022-11-21T07:17:16;1.80;99.90
5280;DHT22;2663;53.588;10.010;2022-11-21T07:19:42;2.20;99.90
5280;DHT22;2663;53.588;10.010;2022-11-21T07:22:09;1.50;99.90
5280;DHT22;2663;53.588;10.010;2022-11-21T07:24:36;1.40;99.90
5280;DHT22;2663;53.588;10.010;2022-11-21T07:27:02;1.50;99.90
5280;DHT22;2663;53.588;10.010;2022-11-21T07:29:29;1.40;99.90
5280;DHT22;2663;53.588;10.010;2022-11-21T07:31:56;1.30;99.90
5280;DHT22;2663;53.588;10.010;2022-11-21T07:34:23;1.30;99.90
5280;DHT22;2663;53.588;10.010;2022-11-21T07:36:49;1.30;99.90
5280;DHT22;2663;53.588;10.010;2022-11-21T07:39:16;1.30;99.90
5280;DHT22;2663;53.588;10.010;2022-11-21T07:41:43;1.40;99.90
5280;DHT22;2663;53.588;10.010;2022-11-21T07:44:09;1.40;99.90
5280;DHT22;2663;53.588;10.010;2022-11-21T07:46:36;1.50;99.90
5280;DHT22;2663;53.588;10.010;2022-11-21T07:49:03;1.50;99.90
5280;DHT22;2663;53.588;10.010;2022-11-21T07:51:29;1.60;99.90
5280;DHT22;2663;53.588;10.010;2022-11-21T07:53:56;1.70;99.90
5280;DHT22;2663;53.588;10.010;2022-11-21T07:56:23;1.50;99.90
5280;DHT22;2663;53.588;10.010;2022-11-21T07:58:52;1.40;99.90
5280;DHT22;2663;53.588;10.010;2022-11-21T08:01:18;1.50;99.90
5280;DHT22;2663;53.588;10.010;2022-11-21T08:03:45;1.50;99.90
5280;DHT22;2663;53.588;10.010;2022-11-21T08:06:12;1.60;99.90
5280;DHT22;2663;53.588;10.010;2022-11-21T08:08:39;1.60;99.90
5280;DHT22;2663;53.588;10.010;2022-11-21T08:11:06;1.50;99.90
5280;DHT22;2663;53.588;10.010;2022-11-21T08:13:34;1.40;99.90
5280;DHT22;2663;53.588;10.010;2022-11-21T08:16:04;1.40;99.90
5280;DHT22;2663;53.588;10.010;2022-11-21T08:18:31;1.50;99.90
5280;DHT22;2663;53.588;10.010;2022-11-21T08:21:02;1.70;99.90
5280;DHT22;2663;53.588;10.010;2022-11-21T08:23:30;1.70;99.90
5280;DHT22;2663;53.588;10.010;2022-11-21T08:25:57;1.70;99.90
5280;DHT22;2663;53.588;10.010;2022-11-21T08:28:24;1.60;99.90
5280;DHT22;2663;53.588;10.010;2022-11-21T08:30:51;0.50;99.90
5280;DHT22;2663;53.588;10.010;2022-11-21T08:33:18;1.60;99.90
5280;DHT22;2663;53.588;10.010;2022-11-21T08:35:44;1.60;99.90
5280;DHT22;2663;53.588;10.010;2022-11-21T08:38:11;1.70;99.90
5280;DHT22;2663;53.588;10.010;2022-11-21T08:40:39;1.80;99.90
5280;DHT22;2663;53.588;10.010;2022-11-21T08:43:07;1.80;99.90
5280;DHT22;2663;53.588;10.010;2022-11-21T08:45:34;2.10;99.90
5280;DHT22;2663;53.588;10.010;2022-11-21T08:48:02;2.30;99.90
5280;DHT22;2663;53.588;10.010;2022-11-21T08:50:29;2.00;99.90
5280;DHT22;2663;53.588;10.010;2022-11-21T08:52:59;1.80;99.90
5280;DHT22;2663;53.588;10.010;2022-11-21T08:55:27;1.80;99.90
5280;DHT22;2663;53.588;10.010;2022-11-21T08:57:54;1.80;99.90
5280;DHT22;2663;53.588;10.010;2022-11-21T09:00:21;1.80;99.90
5280;DHT22;2663;53.588;10.010;2022-11-21T09:02:47;1.90;99.90
5280;DHT22;2663;53.588;10.010;2022-11-21T09:05:14;1.80;99.90
5280;DHT22;2663;53.588;10.010;2022-11-21T09:07:41;1.70;99.90
5280;DHT22;2663;53.588;10.010;2022-11-21T09:10:08;1.60;99.90
5280;DHT22;2663;53.588;10.010;2022-11-21T09:12:35;2.40;99.90
5280;DHT22;2663;53.588;10.010;2022-11-21T09:15:01;1.90;99.90
5280;DHT22;2663;53.588;10.010;2022-11-21T09:17:47;2.10;99.90
5280;DHT22;2663;53.588;10.010;2022-11-21T09:20:35;2.00;99.90
5280;DHT22;2663;53.588;10.010;2022-11-21T09:23:04;2.10;99.90
5280;DHT22;2663;53.588;10.010;2022-11-21T09:25:32;2.10;99.90
5280;DHT22;2663;53.588;10.010;2022-11-21T09:28:03;2.10;99.90
5280;DHT22;2663;53.588;10.010;2022-11-21T09:30:30;2.10;99.90
5280;DHT22;2663;53.588;10.010;2022-11-21T09:33:00;2.10;99.90
5280;DHT22;2663;53.588;10.010;2022-11-21T09:35:28;2.20;99.90
5280;DHT22;2663;53.588;10.010;2022-11-21T09:37:55;2.50;99.90
5280;DHT22;2663;53.588;10.010;2022-11-21T09:40:22;2.50;99.90
5280;DHT22;2663;53.588;10.010;2022-11-21T09:45:46;2.50;99.90
5280;DHT22;2663;53.588;10.010;2022-11-21T09:48:26;2.40;99.90
5280;DHT22;2663;53.588;10.010;2022-11-21T09:50:58;2.40;99.90
5280;DHT22;2663;53.588;10.010;2022-11-21T09:53:47;2.60;99.90
5280;DHT22;2663;53.588;10.010;2022-11-21T09:56:16;2.70;99.90
5280;DHT22;2663;53.588;10.010;2022-11-21T09:58:53;2.80;99.90
5280;DHT22;2663;53.588;10.010;2022-11-21T10:01:21;2.80;99.90
5280;DHT22;2663;53.588;10.010;2022-11-21T10:03:50;2.80;99.90
5280;DHT22;2663;53.588;10.010;2022-11-21T10:06:24;2.60;99.90
5280;DHT22;2663;53.588;10.010;2022-11-21T10:12:10;2.30;99.90
5280;DHT22;2663;53.588;10.010;2022-11-21T10:17:47;2.60;99.90
5280;DHT22;2663;53.588;10.010;2022-11-21T10:20:32;2.50;99.90
5280;DHT22;2663;53.588;10.010;2022-11-21T10:23:20;2.40;99.90
5280;DHT22;2663;53.588;10.010;2022-11-21T10:25:56;2.40;99.90
5280;DHT22;2663;53.588;10.010;2022-11-21T10:28:37;2.30;99.90
5280;DHT22;2663;53.588;10.010;2022-11-21T10:31:12;2.30;99.90
5280;DHT22;2663;53.588;10.010;2022-11-21T10:33:40;2.30;99.90
5280;DHT22;2663;53.588;10.010;2022-11-21T10:38:54;2.30;99.90
5280;DHT22;2663;53.588;10.010;2022-11-21T10:41:42;2.20;99.90
5280;DHT22;2663;53.588;10.010;2022-11-21T10:44:24;2.00;99.90
5280;DHT22;2663;53.588;10.010;2022-11-21T10:47:16;2.00;99.90
5280;DHT22;2663;53.588;10.010;2022-11-21T10:50:02;2.10;99.90
5280;DHT22;2663;53.588;10.010;2022-11-21T10:52:34;2.30;99.90
5280;DHT22;2663;53.588;10.010;2022-11-21T10:57:49;2.50;99.90
5280;DHT22;2663;53.588;10.010;2022-11-21T11:00:24;2.40;99.90
5280;DHT22;2663;53.588;10.010;2022-11-21T11:03:05;2.70;99.90
5280;DHT22;2663;53.588;10.010;2022-11-21T11:05:35;2.80;99.90
5280;DHT22;2663;53.588;10.010;2022-11-21T11:08:08;2.90;99.90
5280;DHT22;2663;53.588;10.010;2022-11-21T11:11:03;2.70;99.90
5280;DHT22;2663;53.588;10.010;2022-11-21T11:13:30;2.60;99.90
5280;DHT22;2663;53.588;10.010;2022-11-21T11:16:15;2.80;99.90
5280;DHT22;2663;53.588;10.010;2022-11-21T11:18:56;3.10;99.90
5280;DHT22;2663;53.588;10.010;2022-11-21T11:21:30;3.10;99.90
5280;DHT22;2663;53.588;10.010;2022-11-21T11:29:21;3.50;99.90
5280;DHT22;2663;53.588;10.010;2022-11-21T11:34:37;3.80;99.90
5280;DHT22;2663;53.588;10.010;2022-11-21T11:37:12;3.90;99.90
5280;DHT22;2663;53.588;10.010;2022-11-21T11:40:41;4.00;99.90
5280;DHT22;2663;53.588;10.010;2022-11-21T11:48:52;4.10;99.90
5280;DHT22;2663;53.588;10.010;2022-11-21T11:51:47;4.00;99.90
5280;DHT22;2663;53.588;10.010;2022-11-21T11:54:29;4.00;99.90
5280;DHT22;2663;53.588;10.010;2022-11-21T11:56:58;3.90;99.90
5280;DHT22;2663;53.588;10.010;2022-11-21T11:59:32;3.80;99.90
5280;DHT22;2663;53.588;10.010;2022-11-21T12:02:21;3.90;99.90
5280;DHT22;2663;53.588;10.010;2022-11-21T12:04:54;3.90;99.90
5280;DHT22;2663;53.588;10.010;2022-11-21T12:07:43;3.90;99.90
5280;DHT22;2663;53.588;10.010;2022-11-21T12:10:50;3.90;99.90
5280;DHT22;2663;53.588;10.010;2022-11-21T12:13:39;3.90;99.90
5280;DHT22;2663;53.588;10.010;2022-11-21T12:16:11;3.90;99.90
5280;DHT22;2663;53.588;10.010;2022-11-21T12:19:00;4.00;99.90
5280;DHT22;2663;53.588;10.010;2022-11-21T12:21:28;4.10;99.80
5280;DHT22;2663;53.588;10.010;2022-11-21T12:23:56;4.20;99.30
5280;DHT22;2663;53.588;10.010;2022-11-21T12:26:44;4.30;98.90
5280;DHT22;2663;53.588;10.010;2022-11-21T12:32:19;4.40;97.90
5280;DHT22;2663;53.588;10.010;2022-11-21T12:35:27;4.20;97.90
5280;DHT22;2663;53.588;10.010;2022-11-21T12:41:07;4.20;96.90
5280;DHT22;2663;53.588;10.010;2022-11-21T12:44:08;4.20;97.30
5280;DHT22;2663;53.588;10.010;2022-11-21T12:47:00;4.40;97.60
5280;DHT22;2663;53.588;10.010;2022-11-21T12:49:48;4.50;97.10
5280;DHT22;2663;53.588;10.010;2022-11-21T12:52:40;4.40;96.60
5280;DHT22;2663;53.588;10.010;2022-11-21T12:55:38;4.50;97.10
5280;DHT22;2663;53.588;10.010;2022-11-21T12:58:20;4.60;97.00
5280;DHT22;2663;53.588;10.010;2022-11-21T13:03:58;4.80;96.60
5280;DHT22;2663;53.588;10.010;2022-11-21T13:06:32;4.70;96.40
5280;DHT22;2663;53.588;10.010;2022-11-21T13:09:05;4.70;96.10
5280;DHT22;2663;53.588;10.010;2022-11-21T13:11:55;4.80;96.20
5280;DHT22;2663;53.588;10.010;2022-11-21T13:20:33;4.70;96.90
5280;DHT22;2663;53.588;10.010;2022-11-21T13:23:04;4.80;96.70
5280;DHT22;2663;53.588;10.010;2022-11-21T13:25:50;4.80;97.00
5280;DHT22;2663;53.588;10.010;2022-11-21T13:30:54;4.70;98.20
5280;DHT22;2663;53.588;10.010;2022-11-21T13:47:00;4.80;98.40
5280;DHT22;2663;53.588;10.010;2022-11-21T14:06:40;4.60;99.10
5280;DHT22;2663;53.588;10.010;2022-11-21T14:11:56;4.60;99.50
5280;DHT22;2663;53.588;10.010;2022-11-21T14:17:06;4.50;99.80
5280;DHT22;2663;53.588;10.010;2022-11-21T14:19:39;4.40;99.90
5280;DHT22;2663;53.588;10.010;2022-11-21T14:25:00;4.50;99.90
5280;DHT22;2663;53.588;10.010;2022-11-21T14:27:32;4.50;99.90
5280;DHT22;2663;53.588;10.010;2022-11-21T14:30:28;4.40;99.90
5280;DHT22;2663;53.588;10.010;2022-11-21T14:32:55;4.50;99.90
5280;DHT22;2663;53.588;10.010;2022-11-21T14:35:23;4.40;99.90
5280;DHT22;2663;53.588;10.010;2022-11-21T14:37:50;4.50;99.90
5280;DHT22;2663;53.588;10.010;2022-11-21T14:40:22;4.40;99.90
5280;DHT22;2663;53.588;10.010;2022-11-21T14:42:49;4.30;99.90
5280;DHT22;2663;53.588;10.010;2022-11-21T14:45:21;4.30;99.90
5280;DHT22;2663;53.588;10.010;2022-11-21T14:47:49;4.20;99.90
5280;DHT22;2663;53.588;10.010;2022-11-21T14:50:23;4.20;99.90
5280;DHT22;2663;53.588;10.010;2022-11-21T14:52:50;4.10;99.90
5280;DHT22;2663;53.588;10.010;2022-11-21T14:55:26;4.10;99.90
5280;DHT22;2663;53.588;10.010;2022-11-21T14:57:58;4.00;99.90
5280;DHT22;2663;53.588;10.010;2022-11-21T15:00:27;3.90;99.90
5280;DHT22;2663;53.588;10.010;2022-11-21T15:03:19;4.10;99.90
5280;DHT22;2663;53.588;10.010;2022-11-21T15:05:48;4.00;99.90
5280;DHT22;2663;53.588;10.010;2022-11-21T15:08:36;4.00;99.90
5280;DHT22;2663;53.588;10.010;2022-11-21T15:11:39;4.00;99.90
5280;DHT22;2663;53.588;10.010;2022-11-21T15:14:20;4.00;99.90
5280;DHT22;2663;53.588;10.010;2022-11-21T15:16:50;3.90;99.90
5280;DHT22;2663;53.588;10.010;2022-11-21T15:19:26;3.90;99.90
5280;DHT22;2663;53.588;10.010;2022-11-21T15:21:59;3.80;99.90
5280;DHT22;2663;53.588;10.010;2022-11-21T15:26:58;3.80;99.90
5280;DHT22;2663;53.588;10.010;2022-11-21T15:29:25;3.80;99.90
5280;DHT22;2663;53.588;10.010;2022-11-21T15:32:09;3.90;99.90
5280;DHT22;2663;53.588;10.010;2022-11-21T15:34:56;3.60;99.90
5280;DHT22;2663;53.588;10.010;2022-11-21T15:37:23;3.60;99.90
5280;DHT22;2663;53.588;10.010;2022-11-21T15:39:51;3.60;99.90
5280;DHT22;2663;53.588;10.010;2022-11-21T15:44:59;3.50;99.90
5280;DHT22;2663;53.588;10.010;2022-11-21T15:47:26;3.60;99.90
5280;DHT22;2663;53.588;10.010;2022-11-21T15:49:54;3.60;99.90
5280;DHT22;2663;53.588;10.010;2022-11-21T15:52:20;3.50;99.90
5280;DHT22;2663;53.588;10.010;2022-11-21T15:54:47;3.50;99.90
5280;DHT22;2663;53.588;10.010;2022-11-21T15:57:14;3.50;99.90
5280;DHT22;2663;53.588;10.010;2022-11-21T15:59:43;3.40;99.90
5280;DHT22;2663;53.588;10.010;2022-11-21T16:02:12;3.40;99.90
5280;DHT22;2663;53.588;10.010;2022-11-21T16:04:40;3.40;99.90
5280;DHT22;2663;53.588;10.010;2022-11-21T16:07:07;3.40;99.90
5280;DHT22;2663;53.588;10.010;2022-11-21T16:09:33;3.30;99.90
5280;DHT22;2663;53.588;10.010;2022-11-21T16:12:01;3.40;99.90
5280;DHT22;2663;53.588;10.010;2022-11-21T16:14:28;3.40;99.90
5280;DHT22;2663;53.588;10.010;2022-11-21T16:16:55;3.40;99.90
5280;DHT22;2663;53.588;10.010;2022-11-21T16:19:22;3.30;99.90
5280;DHT22;2663;53.588;10.010;2022-11-21T16:21:48;3.30;99.90
5280;DHT22;2663;53.588;10.010;2022-11-21T16:24:15;3.30;99.90
5280;DHT22;2663;53.588;10.010;2022-11-21T16:26:42;3.20;99.90
5280;DHT22;2663;53.588;10.010;2022-11-21T16:29:09;3.10;99.90
5280;DHT22;2663;53.588;10.010;2022-11-21T16:31:36;3.20;99.90
5280;DHT22;2663;53.588;10.010;2022-11-21T16:34:02;3.20;99.90
5280;DHT22;2663;53.588;10.010;2022-11-21T16:36:30;3.10;99.90
5280;DHT22;2663;53.588;10.010;2022-11-21T16:38:58;3.10;99.90
5280;DHT22;2663;53.588;10.010;2022-11-21T16:41:35;3.10;99.90
5280;DHT22;2663;53.588;10.010;2022-11-21T16:44:02;3.10;99.90
5280;DHT22;2663;53.588;10.010;2022-11-21T16:46:29;3.10;99.90
5280;DHT22;2663;53.588;10.010;2022-11-21T16:48:58;3.10;99.90
5280;DHT22;2663;53.588;10.010;2022-11-21T16:51:26;3.10;99.90
5280;DHT22;2663;53.588;10.010;2022-11-21T16:53:52;3.00;99.90
5280;DHT22;2663;53.588;10.010;2022-11-21T16:56:20;3.00;99.90
5280;DHT22;2663;53.588;10.010;2022-11-21T16:58:46;3.10;99.90
5280;DHT22;2663;53.588;10.010;2022-11-21T17:01:16;3.00;99.90
5280;DHT22;2663;53.588;10.010;2022-11-21T17:03:44;3.00;99.90
5280;DHT22;2663;53.588;10.010;2022-11-21T17:06:15;3.00;99.90
5280;DHT22;2663;53.588;10.010;2022-11-21T17:08:42;3.00;99.90
5280;DHT22;2663;53.588;10.010;2022-11-21T17:11:23;2.90;99.90
5280;DHT22;2663;53.588;10.010;2022-11-21T17:13:55;2.90;99.90
5280;DHT22;2663;53.588;10.010;2022-11-21T17:16:23;2.80;99.90
5280;DHT22;2663;53.588;10.010;2022-11-21T17:18:53;2.80;99.90
5280;DHT22;2663;53.588;10.010;2022-11-21T17:21:21;2.70;99.90
5280;DHT22;2663;53.588;10.010;2022-11-21T17:23:48;2.80;99.90
5280;DHT22;2663;53.588;10.010;2022-11-21T17:26:17;2.70;99.90
5280;DHT22;2663;53.588;10.010;2022-11-21T17:28:49;2.60;99.90
5280;DHT22;2663;53.588;10.010;2022-11-21T17:31:15;2.70;99.90
5280;DHT22;2663;53.588;10.010;2022-11-21T17:33:42;2.70;99.90
5280;DHT22;2663;53.588;10.010;2022-11-21T17:36:13;2.60;99.90
5280;DHT22;2663;53.588;10.010;2022-11-21T17:38:40;2.60;99.90
5280;DHT22;2663;53.588;10.010;2022-11-21T17:41:10;2.60;99.90
5280;DHT22;2663;53.588;10.010;2022-11-21T17:43:37;2.50;99.90
5280;DHT22;2663;53.588;10.010;2022-11-21T17:46:06;2.40;99.90
5280;DHT22;2663;53.588;10.010;2022-11-21T17:48:36;2.40;99.90
5280;DHT22;2663;53.588;10.010;2022-11-21T17:51:13;2.40;99.90
5280;DHT22;2663;53.588;10.010;2022-11-21T17:53:42;2.40;99.90
5280;DHT22;2663;53.588;10.010;2022-11-21T17:56:15;2.40;99.90
5280;DHT22;2663;53.588;10.010;2022-11-21T17:58:41;2.40;99.90